sensor_id;sensor_type;location;lat;lon;timestamp;pressure;altitude;pressure_sealevel;temperature;humidity
74659;BME280;63186;51.204;6.536;2023-10-08T00:01:34;101849.81;;;16.66;86.00
74659;BME280;63186;51.204;6.536;2023-10-08T00:04:00;101845.75;;;16.63;85.69
74659;BME280;63186;51.204;6.536;2023-10-08T00:06:29;101845.41;;;16.65;85.80
74659;BME280;63186;51.204;6.536;2023-10-08T00:08:55;101847.72;;;16.63;85.91
74659;BME280;63186;51.204;6.536;2023-10-08T00:11:25;101856.69;;;16.60;85.77
74659;BME280;63186;51.204;6.536;2023-10-08T00:13:51;101864.53;;;16.58;85.99
74659;BME280;63186;51.204;6.536;2023-10-08T00:16:21;101866.81;;;16.55;86.11
74659;BME280;63186;51.204;6.536;2023-10-08T00:18:47;101868.28;;;16.53;86.42
74659;BME280;63186;51.204;6.536;2023-10-08T00:21:19;101874.19;;;16.51;86.05
74659;BME280;63186;51.204;6.536;2023-10-08T00:23:51;101870.72;;;16.46;86.43
74659;BME280;63186;51.204;6.536;2023-10-08T00:26:25;101880.88;;;16.50;86.94
74659;BME280;63186;51.204;6.536;2023-10-08T00:31:24;101870.25;;;16.44;86.54
74659;BME280;63186;51.204;6.536;2023-10-08T00:34:02;101872.69;;;16.37;86.79
74659;BME280;63186;51.204;6.536;2023-10-08T00:36:30;101869.72;;;16.33;86.87
74659;BME280;63186;51.204;6.536;2023-10-08T00:38:55;101870.69;;;16.28;87.07
74659;BME280;63186;51.204;6.536;2023-10-08T00:41:25;101861.84;;;16.26;87.43
74659;BME280;63186;51.204;6.536;2023-10-08T00:43:54;101868.56;;;16.25;87.17
74659;BME280;63186;51.204;6.536;2023-10-08T00:46:22;101874.44;;;16.24;87.25
74659;BME280;63186;51.204;6.536;2023-10-08T00:48:54;101873.25;;;16.16;87.68
74659;BME280;63186;51.204;6.536;2023-10-08T00:51:21;101884.19;;;16.13;87.44
74659;BME280;63186;51.204;6.536;2023-10-08T00:53:56;101886.28;;;16.07;88.04
74659;BME280;63186;51.204;6.536;2023-10-08T00:56:26;101882.84;;;16.01;87.86
74659;BME280;63186;51.204;6.536;2023-10-08T00:59:09;101876.94;;;15.94;87.97
74659;BME280;63186;51.204;6.536;2023-10-08T01:01:38;101868.06;;;15.84;88.06
74659;BME280;63186;51.204;6.536;2023-10-08T01:04:04;101875.41;;;15.80;88.50
74659;BME280;63186;51.204;6.536;2023-10-08T01:06:37;101863.13;;;15.72;88.79
74659;BME280;63186;51.204;6.536;2023-10-08T01:09:04;101861.63;;;15.66;89.29
74659;BME280;63186;51.204;6.536;2023-10-08T01:11:42;101880.84;;;15.62;89.64
74659;BME280;63186;51.204;6.536;2023-10-08T01:14:14;101889.59;;;15.56;89.83
74659;BME280;63186;51.204;6.536;2023-10-08T01:16:40;101882.75;;;15.53;89.82
74659;BME280;63186;51.204;6.536;2023-10-08T01:19:10;101862.75;;;15.42;90.29
74659;BME280;63186;51.204;6.536;2023-10-08T01:21:39;101865.97;;;15.36;89.94
74659;BME280;63186;51.204;6.536;2023-10-08T01:24:05;101884.38;;;15.32;90.75
74659;BME280;63186;51.204;6.536;2023-10-08T01:26:33;101874.34;;;15.22;90.45
74659;BME280;63186;51.204;6.536;2023-10-08T01:28:59;101886.38;;;15.17;91.14
74659;BME280;63186;51.204;6.536;2023-10-08T01:31:29;101868.72;;;14.91;91.06
74659;BME280;63186;51.204;6.536;2023-10-08T01:33:55;101898.03;;;15.06;91.52
74659;BME280;63186;51.204;6.536;2023-10-08T01:36:22;101889.53;;;15.02;91.47
74659;BME280;63186;51.204;6.536;2023-10-08T01:38:48;101888.50;;;14.98;91.82
74659;BME280;63186;51.204;6.536;2023-10-08T01:41:14;101900.56;;;14.93;91.78
74659;BME280;63186;51.204;6.536;2023-10-08T01:43:47;101906.63;;;14.96;91.90
74659;BME280;63186;51.204;6.536;2023-10-08T01:46:12;101893.78;;;14.86;91.95
74659;BME280;63186;51.204;6.536;2023-10-08T01:48:38;101887.75;;;14.84;92.09
74659;BME280;63186;51.204;6.536;2023-10-08T01:51:04;101886.09;;;14.83;91.81
74659;BME280;63186;51.204;6.536;2023-10-08T01:53:37;101870.22;;;14.75;92.34
74659;BME280;63186;51.204;6.536;2023-10-08T01:56:04;101874.41;;;14.72;92.74
74659;BME280;63186;51.204;6.536;2023-10-08T01:58:29;101875.16;;;14.64;92.90
74659;BME280;63186;51.204;6.536;2023-10-08T02:00:55;101881.13;;;14.57;93.42
74659;BME280;63186;51.204;6.536;2023-10-08T02:03:24;101867.78;;;14.46;93.99
74659;BME280;63186;51.204;6.536;2023-10-08T02:05:50;101866.38;;;14.48;94.06
74659;BME280;63186;51.204;6.536;2023-10-08T02:08:19;101881.13;;;14.57;93.66
74659;BME280;63186;51.204;6.536;2023-10-08T02:10:44;101880.09;;;14.53;93.57
74659;BME280;63186;51.204;6.536;2023-10-08T02:13:13;101891.72;;;14.55;93.59
74659;BME280;63186;51.204;6.536;2023-10-08T02:15:50;101881.25;;;14.52;94.01
74659;BME280;63186;51.204;6.536;2023-10-08T02:18:17;101874.38;;;14.50;93.90
74659;BME280;63186;51.204;6.536;2023-10-08T02:20:43;101861.84;;;14.52;94.29
74659;BME280;63186;51.204;6.536;2023-10-08T02:23:08;101870.25;;;14.61;93.90
74659;BME280;63186;51.204;6.536;2023-10-08T02:25:36;101882.56;;;14.69;95.44
74659;BME280;63186;51.204;6.536;2023-10-08T02:28:03;101880.59;;;14.69;93.90
74659;BME280;63186;51.204;6.536;2023-10-08T02:30:28;101883.25;;;14.74;93.14
74659;BME280;63186;51.204;6.536;2023-10-08T02:32:53;101876.16;;;14.82;92.64
74659;BME280;63186;51.204;6.536;2023-10-08T02:35:19;101866.69;;;14.83;92.57
74659;BME280;63186;51.204;6.536;2023-10-08T02:37:44;101888.44;;;14.89;93.02
74659;BME280;63186;51.204;6.536;2023-10-08T02:40:11;101873.28;;;14.87;92.50
74659;BME280;63186;51.204;6.536;2023-10-08T02:42:51;101870.50;;;14.87;92.71
74659;BME280;63186;51.204;6.536;2023-10-08T02:45:16;101889.59;;;14.88;93.17
74659;BME280;63186;51.204;6.536;2023-10-08T02:47:43;101897.91;;;14.88;92.61
74659;BME280;63186;51.204;6.536;2023-10-08T02:50:11;101893.50;;;14.87;92.30
74659;BME280;63186;51.204;6.536;2023-10-08T02:52:41;101905.69;;;14.86;92.05
74659;BME280;63186;51.204;6.536;2023-10-08T02:55:07;101895.94;;;14.89;91.39
74659;BME280;63186;51.204;6.536;2023-10-08T02:57:43;101906.22;;;14.88;91.03
74659;BME280;63186;51.204;6.536;2023-10-08T03:00:09;101906.22;;;14.88;91.02
74659;BME280;63186;51.204;6.536;2023-10-08T03:02:38;101901.44;;;14.80;90.94
74659;BME280;63186;51.204;6.536;2023-10-08T03:05:05;101918.13;;;14.89;90.77
74659;BME280;63186;51.204;6.536;2023-10-08T03:07:33;101920.09;;;14.88;90.42
74659;BME280;63186;51.204;6.536;2023-10-08T03:10:00;101924.09;;;14.82;90.72
74659;BME280;63186;51.204;6.536;2023-10-08T03:12:29;101928.94;;;14.77;91.10
74659;BME280;63186;51.204;6.536;2023-10-08T03:15:01;101925.13;;;14.73;91.23
74659;BME280;63186;51.204;6.536;2023-10-08T03:17:37;101926.69;;;14.65;91.78
74659;BME280;63186;51.204;6.536;2023-10-08T03:20:17;101929.38;;;14.56;91.85
74659;BME280;63186;51.204;6.536;2023-10-08T03:23:01;101927.34;;;14.48;92.20
74659;BME280;63186;51.204;6.536;2023-10-08T03:25:30;101908.81;;;14.44;92.31
74659;BME280;63186;51.204;6.536;2023-10-08T03:27:55;101903.28;;;14.44;92.33
74659;BME280;63186;51.204;6.536;2023-10-08T03:30:24;101907.50;;;14.41;92.48
74659;BME280;63186;51.204;6.536;2023-10-08T03:32:51;101922.09;;;14.47;91.97
74659;BME280;63186;51.204;6.536;2023-10-08T03:35:21;101927.53;;;14.52;91.73
74659;BME280;63186;51.204;6.536;2023-10-08T03:37:56;101920.34;;;14.51;91.29
74659;BME280;63186;51.204;6.536;2023-10-08T03:40:41;101920.97;;;14.48;91.38
74659;BME280;63186;51.204;6.536;2023-10-08T03:43:09;101925.06;;;14.50;91.01
74659;BME280;63186;51.204;6.536;2023-10-08T03:45:48;101923.00;;;14.56;90.67
74659;BME280;63186;51.204;6.536;2023-10-08T03:48:19;101909.66;;;14.58;90.52
74659;BME280;63186;51.204;6.536;2023-10-08T03:50:47;101918.28;;;14.56;90.70
74659;BME280;63186;51.204;6.536;2023-10-08T03:53:22;101911.22;;;14.50;90.52
74659;BME280;63186;51.204;6.536;2023-10-08T03:55:48;101916.66;;;14.55;89.80
74659;BME280;63186;51.204;6.536;2023-10-08T03:58:17;101919.00;;;14.62;89.84
74659;BME280;63186;51.204;6.536;2023-10-08T04:00:54;101913.25;;;14.58;89.77
74659;BME280;63186;51.204;6.536;2023-10-08T04:03:36;101922.19;;;14.55;90.08
74659;BME280;63186;51.204;6.536;2023-10-08T04:06:17;101920.34;;;14.51;89.96
74659;BME280;63186;51.204;6.536;2023-10-08T04:08:48;101924.63;;;14.43;90.10
74659;BME280;63186;51.204;6.536;2023-10-08T04:11:31;101912.00;;;14.37;90.49
74659;BME280;63186;51.204;6.536;2023-10-08T04:14:00;101924.41;;;14.39;90.54
74659;BME280;63186;51.204;6.536;2023-10-08T04:16:28;101917.06;;;14.35;90.69
74659;BME280;63186;51.204;6.536;2023-10-08T04:18:54;101909.56;;;14.35;90.46
74659;BME280;63186;51.204;6.536;2023-10-08T04:21:21;101897.34;;;14.36;90.24
74659;BME280;63186;51.204;6.536;2023-10-08T04:23:47;101896.84;;;14.34;90.09
74659;BME280;63186;51.204;6.536;2023-10-08T04:26:19;101905.16;;;14.34;89.96
74659;BME280;63186;51.204;6.536;2023-10-08T04:28:50;101911.59;;;14.30;89.91
74659;BME280;63186;51.204;6.536;2023-10-08T04:31:15;101932.53;;;14.36;89.75
74659;BME280;63186;51.204;6.536;2023-10-08T04:33:44;101943.94;;;14.34;89.93
74659;BME280;63186;51.204;6.536;2023-10-08T04:36:10;101949.75;;;14.33;89.89
74659;BME280;63186;51.204;6.536;2023-10-08T04:38:43;101944.03;;;14.29;89.38
74659;BME280;63186;51.204;6.536;2023-10-08T04:41:10;101937.97;;;14.27;89.81
74659;BME280;63186;51.204;6.536;2023-10-08T04:43:36;101932.72;;;14.26;90.14
74659;BME280;63186;51.204;6.536;2023-10-08T04:46:07;101933.34;;;14.23;90.51
74659;BME280;63186;51.204;6.536;2023-10-08T04:48:47;101917.66;;;14.18;90.44
74659;BME280;63186;51.204;6.536;2023-10-08T04:51:12;101921.88;;;14.16;90.86
74659;BME280;63186;51.204;6.536;2023-10-08T04:53:38;101930.69;;;14.18;90.92
74659;BME280;63186;51.204;6.536;2023-10-08T04:56:11;101958.56;;;14.21;90.64
74659;BME280;63186;51.204;6.536;2023-10-08T04:58:42;101954.16;;;14.20;90.42
74659;BME280;63186;51.204;6.536;2023-10-08T05:01:20;101940.22;;;14.25;90.32
74659;BME280;63186;51.204;6.536;2023-10-08T05:03:50;101921.25;;;14.19;90.56
74659;BME280;63186;51.204;6.536;2023-10-08T05:06:29;101938.19;;;14.17;90.88
74659;BME280;63186;51.204;6.536;2023-10-08T05:09:15;101937.53;;;14.06;91.15
74659;BME280;63186;51.204;6.536;2023-10-08T05:11:44;101951.69;;;14.05;91.73
74659;BME280;63186;51.204;6.536;2023-10-08T05:14:16;101948.19;;;13.99;91.47
74659;BME280;63186;51.204;6.536;2023-10-08T05:16:55;101956.19;;;14.01;91.96
74659;BME280;63186;51.204;6.536;2023-10-08T05:19:35;101955.28;;;14.05;91.62
74659;BME280;63186;51.204;6.536;2023-10-08T05:22:15;101968.53;;;14.08;91.35
74659;BME280;63186;51.204;6.536;2023-10-08T05:25:03;101983.19;;;14.09;91.26
74659;BME280;63186;51.204;6.536;2023-10-08T05:27:42;101976.94;;;14.17;90.72
74659;BME280;63186;51.204;6.536;2023-10-08T05:30:21;101979.22;;;14.15;90.50
74659;BME280;63186;51.204;6.536;2023-10-08T05:33:06;101991.81;;;14.21;90.66
74659;BME280;63186;51.204;6.536;2023-10-08T05:35:35;101990.47;;;14.19;90.83
74659;BME280;63186;51.204;6.536;2023-10-08T05:38:12;101998.88;;;14.13;90.82
74659;BME280;63186;51.204;6.536;2023-10-08T05:40:45;101999.28;;;14.07;91.23
74659;BME280;63186;51.204;6.536;2023-10-08T05:43:34;102002.34;;;14.05;91.34
74659;BME280;63186;51.204;6.536;2023-10-08T05:46:07;101988.59;;;14.00;91.58
74659;BME280;63186;51.204;6.536;2023-10-08T05:48:54;102004.91;;;14.02;91.84
74659;BME280;63186;51.204;6.536;2023-10-08T05:51:33;101994.75;;;13.97;91.68
74659;BME280;63186;51.204;6.536;2023-10-08T05:54:20;101995.75;;;14.01;92.09
74659;BME280;63186;51.204;6.536;2023-10-08T05:57:08;102001.03;;;14.03;92.27
74659;BME280;63186;51.204;6.536;2023-10-08T05:59:40;102003.25;;;14.01;92.42
74659;BME280;63186;51.204;6.536;2023-10-08T06:02:19;101988.09;;;13.98;91.95
74659;BME280;63186;51.204;6.536;2023-10-08T06:05:05;101984.81;;;13.96;92.15
74659;BME280;63186;51.204;6.536;2023-10-08T06:07:48;101963.75;;;13.95;93.30
74659;BME280;63186;51.204;6.536;2023-10-08T06:10:29;101951.28;;;13.98;92.68
74659;BME280;63186;51.204;6.536;2023-10-08T06:12:58;101954.84;;;13.98;92.30
74659;BME280;63186;51.204;6.536;2023-10-08T06:15:35;101963.16;;;13.98;92.81
74659;BME280;63186;51.204;6.536;2023-10-08T06:20:42;101981.00;;;14.06;92.12
74659;BME280;63186;51.204;6.536;2023-10-08T06:23:14;101967.69;;;14.08;92.48
74659;BME280;63186;51.204;6.536;2023-10-08T06:25:43;101978.25;;;14.06;92.03
74659;BME280;63186;51.204;6.536;2023-10-08T06:28:16;101994.78;;;14.11;92.16
74659;BME280;63186;51.204;6.536;2023-10-08T06:30:45;101982.06;;;14.10;92.17
74659;BME280;63186;51.204;6.536;2023-10-08T06:33:11;102003.00;;;14.16;91.65
74659;BME280;63186;51.204;6.536;2023-10-08T06:35:36;102019.00;;;14.19;91.95
74659;BME280;63186;51.204;6.536;2023-10-08T06:38:02;102005.06;;;14.24;91.66
74659;BME280;63186;51.204;6.536;2023-10-08T06:40:35;102006.19;;;14.23;91.43
74659;BME280;63186;51.204;6.536;2023-10-08T06:43:04;101999.19;;;14.26;91.65
74659;BME280;63186;51.204;6.536;2023-10-08T06:45:49;102003.22;;;14.33;91.78
74659;BME280;63186;51.204;6.536;2023-10-08T06:48:18;101992.34;;;14.37;91.65
74659;BME280;63186;51.204;6.536;2023-10-08T06:50:45;101988.66;;;14.42;91.88
74659;BME280;63186;51.204;6.536;2023-10-08T06:53:11;101993.31;;;14.46;91.32
74659;BME280;63186;51.204;6.536;2023-10-08T06:55:38;102002.84;;;14.54;91.53
74659;BME280;63186;51.204;6.536;2023-10-08T06:58:05;102005.84;;;14.57;91.02
74659;BME280;63186;51.204;6.536;2023-10-08T07:00:37;102003.06;;;14.57;90.66
74659;BME280;63186;51.204;6.536;2023-10-08T07:03:13;102005.53;;;14.59;90.77
74659;BME280;63186;51.204;6.536;2023-10-08T07:05:45;102008.19;;;14.64;90.68
74659;BME280;63186;51.204;6.536;2023-10-08T07:08:20;102019.78;;;14.66;90.61
74659;BME280;63186;51.204;6.536;2023-10-08T07:10:46;102012.72;;;14.74;90.58
74659;BME280;63186;51.204;6.536;2023-10-08T07:13:12;102011.78;;;14.78;90.20
74659;BME280;63186;51.204;6.536;2023-10-08T07:15:43;102018.34;;;14.82;90.13
74659;BME280;63186;51.204;6.536;2023-10-08T07:18:10;102020.00;;;14.83;90.56
74659;BME280;63186;51.204;6.536;2023-10-08T07:20:39;102025.63;;;14.92;90.17
74659;BME280;63186;51.204;6.536;2023-10-08T07:23:06;102035.59;;;15.07;89.65
74659;BME280;63186;51.204;6.536;2023-10-08T07:25:37;102029.97;;;15.34;88.61
74659;BME280;63186;51.204;6.536;2023-10-08T07:28:04;102037.50;;;15.56;87.14
74659;BME280;63186;51.204;6.536;2023-10-08T07:30:36;102036.53;;;15.52;86.67
74659;BME280;63186;51.204;6.536;2023-10-08T07:33:04;102040.22;;;15.47;87.09
74659;BME280;63186;51.204;6.536;2023-10-08T07:35:29;102051.22;;;15.53;86.49
74659;BME280;63186;51.204;6.536;2023-10-08T07:37:55;102062.09;;;15.63;86.67
74659;BME280;63186;51.204;6.536;2023-10-08T07:40:20;102060.91;;;15.78;86.03
74659;BME280;63186;51.204;6.536;2023-10-08T07:42:46;102067.41;;;15.95;85.12
74659;BME280;63186;51.204;6.536;2023-10-08T07:45:17;102072.78;;;15.92;85.06
74659;BME280;63186;51.204;6.536;2023-10-08T07:47:43;102064.75;;;15.90;85.60
74659;BME280;63186;51.204;6.536;2023-10-08T07:50:08;102049.81;;;16.00;85.28
74659;BME280;63186;51.204;6.536;2023-10-08T07:52:37;102057.75;;;16.15;85.03
74659;BME280;63186;51.204;6.536;2023-10-08T07:55:03;102067.72;;;16.16;85.41
74659;BME280;63186;51.204;6.536;2023-10-08T07:57:29;102066.34;;;16.05;85.79
74659;BME280;63186;51.204;6.536;2023-10-08T07:59:56;102080.16;;;15.96;86.04
74659;BME280;63186;51.204;6.536;2023-10-08T08:02:29;102071.44;;;15.89;86.57
74659;BME280;63186;51.204;6.536;2023-10-08T08:04:56;102078.84;;;15.94;86.70
74659;BME280;63186;51.204;6.536;2023-10-08T08:07:22;102079.22;;;16.01;86.28
74659;BME280;63186;51.204;6.536;2023-10-08T08:09:50;102075.81;;;16.04;85.96
74659;BME280;63186;51.204;6.536;2023-10-08T08:12:20;102077.97;;;16.07;85.07
74659;BME280;63186;51.204;6.536;2023-10-08T08:14:47;102075.56;;;16.14;86.05
74659;BME280;63186;51.204;6.536;2023-10-08T08:17:13;102078.56;;;16.26;85.64
74659;BME280;63186;51.204;6.536;2023-10-08T08:19:42;102076.91;;;16.48;85.24
74659;BME280;63186;51.204;6.536;2023-10-08T08:22:10;102087.69;;;16.49;84.16
74659;BME280;63186;51.204;6.536;2023-10-08T08:24:46;102096.63;;;16.38;84.81
74659;BME280;63186;51.204;6.536;2023-10-08T08:27:12;102107.22;;;16.36;85.04
74659;BME280;63186;51.204;6.536;2023-10-08T08:29:51;102106.84;;;16.28;85.08
74659;BME280;63186;51.204;6.536;2023-10-08T08:32:23;102109.34;;;16.30;85.23
74659;BME280;63186;51.204;6.536;2023-10-08T08:34:49;102115.19;;;16.51;85.07
74659;BME280;63186;51.204;6.536;2023-10-08T08:37:16;102110.94;;;16.53;84.42
74659;BME280;63186;51.204;6.536;2023-10-08T08:39:41;102123.38;;;16.56;84.93
74659;BME280;63186;51.204;6.536;2023-10-08T08:42:07;102117.53;;;16.58;84.79
74659;BME280;63186;51.204;6.536;2023-10-08T08:44:35;102108.81;;;16.81;84.23
74659;BME280;63186;51.204;6.536;2023-10-08T08:47:05;102095.06;;;17.16;82.31
74659;BME280;63186;51.204;6.536;2023-10-08T08:49:36;102094.78;;;17.52;81.08
74659;BME280;63186;51.204;6.536;2023-10-08T08:52:05;102104.31;;;17.86;80.32
74659;BME280;63186;51.204;6.536;2023-10-08T08:54:30;102105.13;;;18.12;78.63
74659;BME280;63186;51.204;6.536;2023-10-08T08:56:57;102097.47;;;18.74;76.87
74659;BME280;63186;51.204;6.536;2023-10-08T08:59:27;102101.44;;;19.61;74.35
74659;BME280;63186;51.204;6.536;2023-10-08T09:01:56;102101.00;;;20.13;71.75
74659;BME280;63186;51.204;6.536;2023-10-08T09:04:31;102102.88;;;20.09;71.13
74659;BME280;63186;51.204;6.536;2023-10-08T09:06:58;102102.41;;;19.36;73.73
74659;BME280;63186;51.204;6.536;2023-10-08T09:09:31;102109.84;;;19.32;73.93
74659;BME280;63186;51.204;6.536;2023-10-08T09:11:57;102110.50;;;19.29;74.50
74659;BME280;63186;51.204;6.536;2023-10-08T09:14:23;102123.81;;;18.93;75.80
74659;BME280;63186;51.204;6.536;2023-10-08T09:16:50;102126.28;;;18.95;75.92
74659;BME280;63186;51.204;6.536;2023-10-08T09:19:16;102130.56;;;18.84;76.24
74659;BME280;63186;51.204;6.536;2023-10-08T09:22:23;102132.94;;;18.56;75.59
74659;BME280;63186;51.204;6.536;2023-10-08T09:24:49;102139.84;;;18.58;77.44
74659;BME280;63186;51.204;6.536;2023-10-08T09:27:14;102127.88;;;18.32;78.26
74659;BME280;63186;51.204;6.536;2023-10-08T09:29:40;102133.81;;;18.22;78.67
74659;BME280;63186;51.204;6.536;2023-10-08T09:32:08;102142.84;;;18.27;78.69
74659;BME280;63186;51.204;6.536;2023-10-08T09:34:34;102142.50;;;18.29;79.39
74659;BME280;63186;51.204;6.536;2023-10-08T09:37:00;102139.91;;;18.32;79.07
74659;BME280;63186;51.204;6.536;2023-10-08T09:39:30;102133.47;;;18.32;78.27
74659;BME280;63186;51.204;6.536;2023-10-08T09:42:00;102146.28;;;18.33;78.58
74659;BME280;63186;51.204;6.536;2023-10-08T09:44:28;102151.22;;;18.01;79.77
74659;BME280;63186;51.204;6.536;2023-10-08T09:46:59;102158.75;;;17.75;81.15
74659;BME280;63186;51.204;6.536;2023-10-08T09:49:31;102159.81;;;17.65;80.84
74659;BME280;63186;51.204;6.536;2023-10-08T09:52:00;102157.09;;;17.74;81.71
74659;BME280;63186;51.204;6.536;2023-10-08T09:54:31;102151.69;;;17.77;80.73
74659;BME280;63186;51.204;6.536;2023-10-08T09:57:03;102154.16;;;17.87;80.59
74659;BME280;63186;51.204;6.536;2023-10-08T09:59:32;102160.69;;;17.92;80.58
74659;BME280;63186;51.204;6.536;2023-10-08T10:01:59;102153.50;;;17.99;80.36
74659;BME280;63186;51.204;6.536;2023-10-08T10:04:25;102143.34;;;18.03;80.24
74659;BME280;63186;51.204;6.536;2023-10-08T10:06:53;102135.63;;;18.35;79.37
74659;BME280;63186;51.204;6.536;2023-10-08T10:09:23;102139.66;;;18.55;78.45
74659;BME280;63186;51.204;6.536;2023-10-08T10:11:50;102141.75;;;18.84;77.23
74659;BME280;63186;51.204;6.536;2023-10-08T10:14:15;102144.00;;;18.99;76.57
74659;BME280;63186;51.204;6.536;2023-10-08T10:16:43;102149.63;;;18.82;77.18
74659;BME280;63186;51.204;6.536;2023-10-08T10:19:16;102144.44;;;18.54;77.32
74659;BME280;63186;51.204;6.536;2023-10-08T10:21:41;102152.81;;;18.46;79.18
74659;BME280;63186;51.204;6.536;2023-10-08T10:24:21;102143.44;;;18.59;78.44
74659;BME280;63186;51.204;6.536;2023-10-08T10:26:48;102147.19;;;18.63;79.06
74659;BME280;63186;51.204;6.536;2023-10-08T10:29:18;102145.72;;;18.57;79.16
74659;BME280;63186;51.204;6.536;2023-10-08T10:31:45;102153.72;;;18.84;78.87
74659;BME280;63186;51.204;6.536;2023-10-08T10:34:17;102142.03;;;19.00;78.25
74659;BME280;63186;51.204;6.536;2023-10-08T10:36:45;102155.59;;;19.10;77.60
74659;BME280;63186;51.204;6.536;2023-10-08T10:39:17;102149.00;;;19.14;77.68
74659;BME280;63186;51.204;6.536;2023-10-08T10:41:52;102154.00;;;19.38;77.39
74659;BME280;63186;51.204;6.536;2023-10-08T10:44:25;102151.59;;;19.58;77.44
74659;BME280;63186;51.204;6.536;2023-10-08T10:46:51;102144.16;;;19.62;76.76
74659;BME280;63186;51.204;6.536;2023-10-08T10:49:19;102143.63;;;19.39;77.36
74659;BME280;63186;51.204;6.536;2023-10-08T10:51:55;102151.84;;;19.35;77.45
74659;BME280;63186;51.204;6.536;2023-10-08T10:54:24;102155.56;;;19.18;78.20
74659;BME280;63186;51.204;6.536;2023-10-08T10:56:50;102149.47;;;19.16;79.35
74659;BME280;63186;51.204;6.536;2023-10-08T10:59:39;102147.00;;;19.23;78.80
74659;BME280;63186;51.204;6.536;2023-10-08T11:02:05;102150.09;;;19.31;78.31
74659;BME280;63186;51.204;6.536;2023-10-08T11:04:34;102154.50;;;19.32;78.08
74659;BME280;63186;51.204;6.536;2023-10-08T11:07:19;102152.88;;;19.31;78.40
74659;BME280;63186;51.204;6.536;2023-10-08T11:09:47;102146.84;;;19.20;78.81
74659;BME280;63186;51.204;6.536;2023-10-08T11:12:14;102143.78;;;19.13;79.08
74659;BME280;63186;51.204;6.536;2023-10-08T11:14:46;102134.28;;;19.05;79.22
74659;BME280;63186;51.204;6.536;2023-10-08T11:17:12;102136.44;;;19.00;78.61
74659;BME280;63186;51.204;6.536;2023-10-08T11:19:38;102126.28;;;18.95;79.62
74659;BME280;63186;51.204;6.536;2023-10-08T11:22:03;102136.34;;;19.17;78.84
74659;BME280;63186;51.204;6.536;2023-10-08T11:24:31;102143.16;;;19.37;78.62
74659;BME280;63186;51.204;6.536;2023-10-08T11:27:01;102140.81;;;19.68;77.25
74659;BME280;63186;51.204;6.536;2023-10-08T11:29:47;102146.75;;;19.67;76.86
74659;BME280;63186;51.204;6.536;2023-10-08T11:32:15;102137.03;;;19.43;77.69
74659;BME280;63186;51.204;6.536;2023-10-08T11:34:47;102138.81;;;19.48;78.21
74659;BME280;63186;51.204;6.536;2023-10-08T11:37:26;102143.75;;;19.42;76.92
74659;BME280;63186;51.204;6.536;2023-10-08T11:39:51;102136.53;;;19.41;78.33
74659;BME280;63186;51.204;6.536;2023-10-08T11:42:18;102135.16;;;19.27;78.71
74659;BME280;63186;51.204;6.536;2023-10-08T11:44:53;102145.09;;;19.07;79.72
74659;BME280;63186;51.204;6.536;2023-10-08T11:47:18;102134.47;;;19.00;79.79
74659;BME280;63186;51.204;6.536;2023-10-08T11:49:46;102134.94;;;19.02;79.98
74659;BME280;63186;51.204;6.536;2023-10-08T11:52:15;102128.19;;;19.12;79.41
74659;BME280;63186;51.204;6.536;2023-10-08T11:54:45;102132.94;;;19.11;78.68
74659;BME280;63186;51.204;6.536;2023-10-08T11:57:11;102127.44;;;18.94;79.75
74659;BME280;63186;51.204;6.536;2023-10-08T11:59:36;102121.91;;;18.77;80.73
74659;BME280;63186;51.204;6.536;2023-10-08T12:02:04;102125.72;;;18.55;81.84
74659;BME280;63186;51.204;6.536;2023-10-08T12:04:30;102121.00;;;18.38;82.79
74659;BME280;63186;51.204;6.536;2023-10-08T12:06:55;102111.31;;;18.44;82.67
74659;BME280;63186;51.204;6.536;2023-10-08T12:09:20;102117.41;;;18.46;82.50
74659;BME280;63186;51.204;6.536;2023-10-08T12:11:47;102109.22;;;18.32;82.53
74659;BME280;63186;51.204;6.536;2023-10-08T12:14:13;102120.03;;;18.25;83.55
74659;BME280;63186;51.204;6.536;2023-10-08T12:16:39;102121.03;;;18.29;82.90
74659;BME280;63186;51.204;6.536;2023-10-08T12:19:04;102111.16;;;18.32;83.00
74659;BME280;63186;51.204;6.536;2023-10-08T12:21:41;102094.13;;;18.33;83.07
74659;BME280;63186;51.204;6.536;2023-10-08T12:24:06;102121.34;;;18.28;83.29
74659;BME280;63186;51.204;6.536;2023-10-08T12:26:35;102107.59;;;18.23;83.78
74659;BME280;63186;51.204;6.536;2023-10-08T12:29:00;102103.66;;;18.24;84.46
74659;BME280;63186;51.204;6.536;2023-10-08T12:31:26;102110.22;;;18.28;84.23
74659;BME280;63186;51.204;6.536;2023-10-08T12:33:54;102095.16;;;18.20;84.22
74659;BME280;63186;51.204;6.536;2023-10-08T12:36:25;102097.28;;;18.14;84.68
74659;BME280;63186;51.204;6.536;2023-10-08T12:38:52;102093.00;;;18.17;84.96
74659;BME280;63186;51.204;6.536;2023-10-08T12:41:23;102091.19;;;18.21;85.06
74659;BME280;63186;51.204;6.536;2023-10-08T12:43:50;102092.66;;;18.27;84.95
74659;BME280;63186;51.204;6.536;2023-10-08T12:46:18;102087.44;;;18.26;84.71
74659;BME280;63186;51.204;6.536;2023-10-08T12:48:44;102082.97;;;18.33;84.65
74659;BME280;63186;51.204;6.536;2023-10-08T12:51:13;102071.50;;;18.35;84.35
74659;BME280;63186;51.204;6.536;2023-10-08T12:53:38;102067.06;;;18.34;84.62
74659;BME280;63186;51.204;6.536;2023-10-08T12:56:05;102057.69;;;18.47;84.34
74659;BME280;63186;51.204;6.536;2023-10-08T12:58:32;102062.38;;;18.73;83.33
74659;BME280;63186;51.204;6.536;2023-10-08T13:01:03;102068.00;;;18.93;82.26
74659;BME280;63186;51.204;6.536;2023-10-08T13:03:31;102061.81;;;18.88;82.10
74659;BME280;63186;51.204;6.536;2023-10-08T13:05:58;102066.16;;;19.06;81.63
74659;BME280;63186;51.204;6.536;2023-10-08T13:08:32;102065.34;;;19.27;81.28
74659;BME280;63186;51.204;6.536;2023-10-08T13:11:01;102058.78;;;19.52;80.76